createdAt,value
2019-06-20T00:00:57.344Z,62.98
2019-06-20T00:03:29.365Z,62.58
2019-06-20T00:06:01.372Z,62.05
2019-06-20T00:08:33.512Z,61.74
2019-06-20T00:11:05.525Z,62.20
2019-06-20T00:13:37.570Z,62.11
2019-06-20T00:16:10.598Z,62.33
2019-06-20T00:18:42.702Z,62.33
2019-06-20T00:21:14.829Z,63.02
2019-06-20T00:23:46.855Z,63.32
2019-06-20T00:26:18.863Z,63.42
2019-06-20T00:28:50.959Z,63.28
2019-06-20T00:31:22.969Z,63.52
2019-06-20T00:33:54.991Z,63.35
2019-06-20T00:36:27.137Z,63.22
2019-06-20T00:38:59.180Z,63.41
2019-06-20T00:41:31.305Z,63.22
2019-06-20T00:44:03.416Z,63.40
2019-06-20T00:46:35.528Z,63.37
2019-06-20T00:49:07.660Z,63.12
2019-06-20T00:51:39.737Z,62.96
2019-06-20T00:54:11.842Z,63.21
2019-06-20T00:56:43.950Z,63.25
2019-06-20T00:59:16.096Z,63.19
2019-06-20T01:01:49.134Z,63.17
2019-06-20T01:04:21.360Z,63.41
2019-06-20T01:06:53.501Z,63.68
2019-06-20T01:09:25.640Z,63.70
2019-06-20T01:11:57.745Z,63.60
2019-06-20T01:14:29.753Z,63.89
2019-06-20T01:17:01.887Z,64.02
2019-06-20T01:19:34.008Z,63.93
2019-06-20T01:22:06.226Z,63.85
2019-06-20T01:24:38.341Z,63.74
2019-06-20T01:27:10.455Z,64.00
2019-06-20T01:29:42.559Z,64.11
2019-06-20T01:32:15.698Z,64.16
2019-06-20T01:34:47.816Z,64.12
2019-06-20T01:37:19.944Z,64.33
2019-06-20T01:39:52.069Z,64.29
2019-06-20T01:42:24.181Z,64.62
2019-06-20T01:44:56.133Z,64.67
2019-06-20T01:47:28.457Z,64.52
2019-06-20T01:50:00.585Z,64.49
2019-06-20T01:52:32.784Z,64.43
2019-06-20T01:55:05.403Z,64.51
2019-06-20T01:57:37.524Z,64.53
2019-06-20T02:00:09.589Z,64.42
2019-06-20T02:02:41.695Z,64.72
2019-06-20T02:05:13.827Z,64.70
2019-06-20T02:07:45.931Z,65.15
2019-06-20T02:10:19.017Z,65.42
2019-06-20T02:12:51.157Z,65.34
2019-06-20T02:15:23.280Z,64.98
2019-06-20T02:17:55.389Z,64.67
2019-06-20T02:20:47.935Z,64.87
2019-06-20T02:23:20.260Z,64.63
2019-06-20T02:25:52.408Z,64.67
2019-06-20T02:28:24.384Z,64.60
2019-06-20T02:30:56.504Z,64.16
2019-06-20T02:33:29.636Z,63.95
2019-06-20T02:36:01.773Z,64.53
2019-06-20T02:38:33.941Z,63.97
2019-06-20T02:41:06.076Z,63.96
2019-06-20T02:43:38.202Z,63.61
2019-06-20T02:46:10.322Z,63.74
2019-06-20T02:48:42.457Z,63.17
2019-06-20T02:51:14.904Z,63.08
2019-06-20T02:53:47.104Z,62.81
2019-06-20T02:56:19.244Z,62.82
2019-06-20T02:58:51.374Z,62.61
2019-06-20T03:01:23.478Z,62.50
2019-06-20T03:03:55.504Z,62.39
2019-06-20T03:06:27.536Z,61.99
2019-06-20T03:08:59.553Z,61.46
2019-06-20T03:11:32.437Z,61.44
2019-06-20T03:14:04.458Z,61.39
2019-06-20T03:16:36.587Z,61.34
2019-06-20T03:19:08.628Z,60.96
2019-06-20T03:21:40.845Z,60.67
2019-06-20T03:24:12.974Z,60.69
2019-06-20T03:26:45.010Z,60.43
2019-06-20T03:29:17.044Z,60.49
2019-06-20T03:31:50.161Z,60.35
2019-06-20T03:34:22.189Z,59.83
2019-06-20T03:36:54.291Z,59.62
2019-06-20T03:39:27.293Z,59.42
2019-06-20T03:41:59.302Z,59.17
2019-06-20T03:44:31.339Z,59.19
2019-06-20T03:47:03.370Z,59.21
2019-06-20T03:49:35.401Z,59.50
2019-06-20T03:52:07.426Z,59.57
2019-06-20T03:54:39.457Z,58.83
2019-06-20T03:57:11.580Z,58.32
2019-06-20T03:59:43.503Z,58.07
2019-06-20T04:02:15.456Z,57.88
2019-06-20T04:04:47.301Z,57.55
2019-06-20T04:07:19.398Z,57.45
2019-06-20T04:09:51.406Z,56.98
2019-06-20T04:12:23.928Z,56.36
2019-06-20T04:14:56.028Z,56.14
2019-06-20T04:17:28.145Z,56.00
2019-06-20T04:20:00.177Z,55.65
2019-06-20T04:22:32.287Z,55.43
2019-06-20T04:25:04.429Z,55.05
2019-06-20T04:27:36.459Z,54.62
2019-06-20T04:30:08.635Z,54.28
2019-06-20T04:32:40.617Z,53.53
2019-06-20T04:35:12.641Z,53.01
2019-06-20T04:37:44.572Z,53.25
2019-06-20T04:40:16.491Z,53.26
2019-06-20T04:42:48.404Z,53.15
2019-06-20T04:45:35.154Z,53.07
2019-06-20T04:48:01.621Z,52.41
2019-06-20T04:50:33.511Z,51.85
2019-06-20T04:53:05.427Z,51.95
2019-06-20T04:55:37.428Z,51.86
2019-06-20T04:58:09.348Z,51.55
2019-06-20T05:00:41.241Z,51.74
2019-06-20T05:03:13.243Z,52.00
2019-06-20T05:05:45.321Z,51.37
2019-06-20T05:08:17.444Z,50.92
2019-06-20T05:10:49.364Z,51.36
2019-06-20T05:13:21.397Z,50.87
2019-06-20T05:15:53.616Z,50.90
2019-06-20T05:18:27.199Z,50.53
2019-06-20T05:20:59.117Z,50.00
2019-06-20T05:23:31.181Z,50.41
2019-06-20T05:26:03.288Z,49.99
2019-06-20T05:28:35.230Z,49.46
2019-06-20T05:31:07.166Z,49.56
2019-06-20T05:33:39.113Z,49.87
2019-06-20T05:36:11.152Z,50.09
2019-06-20T05:38:43.205Z,50.22
2019-06-20T05:41:15.324Z,49.38
2019-06-20T05:43:47.361Z,49.21
2019-06-20T05:46:19.380Z,48.55
2019-06-20T05:48:51.301Z,48.75
2019-06-20T05:51:24.047Z,48.72
2019-06-20T05:53:56.090Z,48.61
2019-06-20T05:56:28.229Z,48.50
2019-06-20T05:59:00.089Z,48.04
2019-06-20T06:01:31.920Z,48.41
2019-06-20T06:04:03.759Z,48.89
2019-06-20T06:06:35.761Z,49.32
2019-06-20T06:09:07.992Z,47.99
2019-06-20T06:11:39.922Z,47.57
2019-06-20T06:14:11.825Z,47.83
2019-06-20T06:16:44.821Z,47.82
2019-06-20T06:19:16.765Z,47.75
2019-06-20T06:21:49.632Z,47.49
2019-06-20T06:24:21.590Z,47.54
2019-06-20T06:26:53.526Z,47.50
2019-06-20T06:29:25.468Z,46.76
2019-06-20T06:31:57.632Z,46.93
2019-06-20T06:34:29.538Z,47.16
2019-06-20T06:37:01.480Z,46.82
2019-06-20T06:39:33.411Z,46.85
2019-06-20T06:42:05.364Z,46.95
2019-06-20T06:44:37.296Z,46.73
2019-06-20T06:47:09.264Z,46.18
2019-06-20T06:49:41.206Z,46.18
2019-06-20T06:52:13.146Z,45.77
2019-06-20T06:54:45.048Z,45.12
2019-06-20T06:57:16.953Z,44.78
2019-06-20T06:59:48.866Z,45.18
2019-06-20T07:02:20.767Z,45.40
2019-06-20T07:04:52.718Z,45.96
2019-06-20T07:07:24.623Z,45.37
2019-06-20T07:09:56.551Z,45.70
2019-06-20T07:12:28.485Z,45.64
2019-06-20T07:15:00.454Z,44.36
2019-06-20T07:17:32.477Z,44.06
2019-06-20T07:20:06.376Z,42.75
2019-06-20T07:22:38.370Z,43.04
2019-06-20T07:25:18.688Z,43.41
2019-06-20T07:27:53.145Z,43.31
2019-06-20T07:30:28.158Z,43.56
2019-06-20T07:33:01.147Z,42.62
2019-06-20T07:35:33.051Z,41.51
2019-06-20T07:38:05.018Z,42.18
2019-06-20T07:40:37.336Z,41.11
2019-06-20T07:43:09.321Z,42.35
2019-06-20T07:45:41.253Z,41.00
2019-06-20T07:48:14.188Z,40.92
2019-06-20T07:50:46.445Z,40.48
2019-06-20T07:53:18.473Z,40.33
2019-06-20T07:55:50.559Z,40.13
2019-06-20T07:58:25.371Z,39.89
2019-06-20T08:00:57.472Z,40.11
2019-06-20T08:03:31.003Z,39.12
2019-06-20T08:06:02.961Z,38.58
2019-06-20T08:08:35.940Z,39.52
2019-06-20T08:11:07.929Z,38.87
2019-06-20T08:13:39.912Z,39.43
2019-06-20T08:16:11.896Z,39.63
2019-06-20T08:18:43.862Z,40.36
2019-06-20T08:21:15.811Z,38.77
2019-06-20T08:23:47.748Z,39.27
2019-06-20T08:26:19.694Z,38.27
2019-06-20T08:29:07.380Z,38.35
2019-06-20T08:31:25.235Z,38.45
2019-06-20T08:33:57.674Z,39.44
2019-06-20T08:36:30.912Z,38.80
2019-06-20T08:39:02.857Z,38.05
2019-06-20T08:41:36.098Z,36.95
2019-06-20T08:44:07.976Z,37.03
2019-06-20T08:46:39.885Z,37.09
2019-06-20T08:49:11.929Z,37.35
2019-06-20T08:51:43.846Z,37.36
2019-06-20T08:54:15.804Z,37.68
2019-06-20T08:56:47.738Z,36.97
2019-06-20T08:59:24.452Z,36.07
2019-06-20T09:01:56.542Z,35.68
2019-06-20T09:04:27.734Z,35.39
2019-06-20T09:07:00.604Z,34.79
2019-06-20T09:09:32.944Z,35.34
2019-06-20T09:12:05.164Z,34.18
2019-06-20T09:14:37.278Z,34.51
2019-06-20T09:17:09.239Z,33.01
2019-06-20T09:19:41.156Z,33.31
2019-06-20T09:22:13.064Z,33.35
2019-06-20T09:24:44.986Z,32.85
2019-06-20T09:27:17.099Z,33.12
2019-06-20T09:29:49.021Z,32.76
2019-06-20T09:32:21.193Z,33.28
2019-06-20T09:34:54.454Z,31.95
2019-06-20T09:37:26.554Z,32.67
2019-06-20T09:39:59.207Z,32.60
2019-06-20T09:42:32.253Z,31.46
2019-06-20T09:45:06.341Z,30.60
2019-06-20T09:47:38.284Z,31.25
2019-06-20T09:50:12.344Z,30.81
2019-06-20T09:52:44.281Z,31.24
2019-06-20T09:55:16.238Z,30.30
2019-06-20T09:57:49.223Z,31.53
2019-06-20T10:00:24.862Z,31.96
2019-06-20T10:02:57.792Z,31.23
2019-06-20T10:05:29.959Z,31.48
2019-06-20T10:08:01.935Z,30.84
2019-06-20T10:10:33.882Z,31.95
2019-06-20T10:13:05.871Z,31.63
2019-06-20T10:15:38.016Z,30.18
2019-06-20T10:18:09.936Z,30.42
2019-06-20T10:20:41.846Z,29.82
2019-06-20T10:23:13.880Z,29.95
2019-06-20T10:25:47.470Z,29.87
2019-06-20T10:28:19.413Z,30.27
2019-06-20T10:30:51.364Z,29.09
2019-06-20T10:33:23.254Z,30.31
2019-06-20T10:35:55.185Z,29.46
2019-06-20T10:38:27.160Z,30.35
2019-06-20T10:41:00.129Z,29.54
2019-06-20T10:43:32.191Z,29.15
2019-06-20T10:46:04.110Z,28.95
2019-06-20T10:48:36.037Z,29.93
2019-06-20T10:51:26.245Z,29.28
2019-06-20T10:53:58.254Z,29.11
2019-06-20T10:56:31.166Z,29.38
2019-06-20T10:59:03.289Z,28.58
2019-06-20T11:01:35.226Z,28.97
2019-06-20T11:04:07.151Z,28.86
2019-06-20T11:06:40.044Z,29.03
2019-06-20T11:09:12.613Z,28.81
2019-06-20T11:11:44.782Z,29.70
2019-06-20T11:14:16.829Z,29.58
2019-06-20T11:16:50.603Z,29.58
2019-06-20T11:19:22.508Z,28.73
2019-06-20T11:21:54.372Z,28.66
2019-06-20T11:24:26.314Z,29.79
2019-06-20T11:26:58.231Z,29.18
2019-06-20T11:29:30.169Z,29.24
2019-06-20T11:32:02.107Z,28.86
2019-06-20T11:34:34.103Z,28.30
2019-06-20T11:37:06.024Z,28.48
2019-06-20T11:39:38.915Z,28.02
2019-06-20T11:42:11.011Z,29.08
2019-06-20T11:44:43.116Z,28.09
2019-06-20T11:47:15.178Z,27.19
2019-06-20T11:49:47.108Z,27.57
2019-06-20T11:52:19.019Z,27.58
2019-06-20T11:54:50.949Z,27.44
2019-06-20T11:57:22.956Z,27.23
2019-06-20T11:59:54.975Z,27.31
2019-06-20T12:02:26.913Z,28.17
2019-06-20T12:04:58.834Z,28.17
2019-06-20T12:07:30.755Z,27.90
2019-06-20T12:10:04.467Z,28.03
2019-06-20T12:12:36.413Z,28.05
2019-06-20T12:15:09.141Z,28.17
2019-06-20T12:17:43.375Z,27.45
2019-06-20T12:20:16.621Z,27.61
2019-06-20T12:22:50.508Z,28.17
2019-06-20T12:25:23.396Z,27.41
2019-06-20T12:27:55.297Z,27.54
2019-06-20T12:30:27.140Z,27.44
2019-06-20T12:32:59.042Z,27.48
2019-06-20T12:35:30.949Z,27.13
2019-06-20T12:38:02.886Z,26.88
2019-06-20T12:40:34.781Z,25.94
2019-06-20T12:43:06.720Z,25.96
2019-06-20T12:45:40.007Z,26.22
2019-06-20T12:48:12.203Z,26.26
2019-06-20T12:50:45.089Z,25.98
2019-06-20T12:53:17.150Z,26.21
2019-06-20T12:55:50.697Z,26.57
2019-06-20T12:58:23.859Z,26.68
2019-06-20T13:00:56.179Z,26.12
2019-06-20T13:03:28.199Z,26.27
2019-06-20T13:06:00.230Z,26.00
2019-06-20T13:08:32.155Z,25.53
2019-06-20T13:11:04.090Z,26.08
2019-06-20T13:13:38.758Z,26.17
2019-06-20T13:16:10.230Z,25.60
2019-06-20T13:18:44.480Z,26.33
2019-06-20T13:21:18.954Z,25.54
2019-06-20T13:23:50.172Z,25.33
2019-06-20T13:26:22.095Z,25.91
2019-06-20T13:29:03.770Z,24.87
2019-06-20T13:31:27.564Z,25.27
2019-06-20T13:33:59.485Z,25.14
2019-06-20T13:36:31.436Z,25.67
2019-06-20T13:39:05.323Z,25.03
2019-06-20T13:41:40.786Z,25.07
2019-06-20T13:44:14.382Z,24.83
2019-06-20T13:46:46.736Z,24.86
2019-06-20T13:49:18.690Z,24.83
2019-06-20T13:51:50.626Z,25.22
2019-06-20T13:54:22.568Z,24.64
2019-06-20T13:56:54.500Z,24.74
2019-06-20T13:59:26.390Z,24.33
2019-06-20T14:02:06.658Z,24.50
2019-06-20T14:04:32.055Z,24.95
2019-06-20T14:07:03.967Z,25.29
2019-06-20T14:09:36.025Z,23.97
2019-06-20T14:12:11.357Z,24.69
2019-06-20T14:14:44.009Z,24.57
2019-06-20T14:17:15.981Z,24.34
2019-06-20T14:19:48.674Z,24.45
2019-06-20T14:22:20.690Z,24.11
2019-06-20T14:24:53.707Z,24.41
2019-06-20T14:27:25.688Z,24.28
2019-06-20T14:29:57.636Z,23.61
2019-06-20T14:32:29.589Z,24.18
2019-06-20T14:35:01.524Z,23.97
2019-06-20T14:37:33.443Z,24.24
2019-06-20T14:40:07.041Z,24.28
2019-06-20T14:42:38.957Z,24.52
2019-06-20T14:45:10.898Z,24.29
2019-06-20T14:47:43.926Z,23.85
2019-06-20T14:50:16.879Z,24.17
2019-06-20T14:52:50.002Z,24.31
2019-06-20T14:55:23.519Z,24.72
2019-06-20T14:57:55.598Z,24.62
2019-06-20T15:00:27.582Z,24.43
2019-06-20T15:02:59.522Z,24.12
2019-06-20T15:05:34.736Z,24.59
2019-06-20T15:08:06.041Z,24.22
2019-06-20T15:10:38.837Z,24.46
2019-06-20T15:13:10.801Z,24.02
2019-06-20T15:15:42.708Z,24.28
2019-06-20T15:18:14.650Z,24.48
2019-06-20T15:20:46.954Z,24.70
2019-06-20T15:23:20.293Z,24.69
2019-06-20T15:25:52.278Z,24.90
2019-06-20T15:28:24.217Z,25.17
2019-06-20T15:30:57.281Z,25.39
2019-06-20T15:33:29.374Z,24.92
2019-06-20T15:36:01.251Z,24.89
2019-06-20T15:38:33.178Z,24.44
2019-06-20T15:41:05.083Z,24.93
2019-06-20T15:43:36.987Z,25.16
2019-06-20T15:46:08.904Z,25.35
2019-06-20T15:48:40.957Z,25.10
2019-06-20T15:51:12.982Z,25.48
2019-06-20T15:53:44.897Z,25.23
2019-06-20T15:56:16.913Z,25.54
2019-06-20T15:58:48.932Z,25.59
2019-06-20T16:01:20.842Z,25.73
2019-06-20T16:03:52.765Z,25.71
2019-06-20T16:06:25.666Z,25.72
2019-06-20T16:08:57.581Z,25.59
2019-06-20T16:11:29.511Z,25.80
2019-06-20T16:14:01.425Z,26.13
2019-06-20T16:16:33.341Z,26.20
2019-06-20T16:19:05.252Z,26.45
2019-06-20T16:21:37.175Z,26.42
2019-06-20T16:24:12.458Z,26.61
2019-06-20T16:26:42.751Z,26.59
2019-06-20T16:29:14.704Z,26.76
2019-06-20T16:31:46.621Z,26.97
2019-06-20T16:34:18.557Z,27.17
2019-06-20T16:36:50.469Z,27.46
2019-06-20T16:39:22.456Z,27.59
2019-06-20T16:41:54.390Z,27.57
2019-06-20T16:44:26.294Z,27.90
2019-06-20T16:46:58.227Z,28.04
2019-06-20T16:49:30.381Z,27.88
2019-06-20T16:52:02.457Z,28.17
2019-06-20T16:54:34.408Z,28.39
2019-06-20T16:57:06.338Z,28.33
2019-06-20T16:59:38.268Z,29.11
2019-06-20T17:02:10.196Z,29.40
2019-06-20T17:04:42.085Z,30.30
2019-06-20T17:07:14.034Z,31.12
2019-06-20T17:09:45.924Z,32.08
2019-06-20T17:12:17.827Z,33.27
2019-06-20T17:14:49.748Z,33.10
2019-06-20T17:17:21.658Z,34.54
2019-06-20T17:19:53.586Z,35.04
2019-06-20T17:22:25.557Z,36.30
2019-06-20T17:24:57.494Z,37.75
2019-06-20T17:27:29.488Z,37.24
2019-06-20T17:30:01.870Z,38.37
2019-06-20T17:32:34.052Z,39.54
2019-06-20T17:35:07.682Z,39.85
2019-06-20T17:37:39.693Z,39.49
2019-06-20T17:40:12.223Z,39.51
2019-06-20T17:42:45.239Z,39.21
2019-06-20T17:45:17.366Z,38.33
2019-06-20T17:47:49.382Z,38.99
2019-06-20T17:50:21.399Z,38.75
2019-06-20T17:52:53.427Z,39.50
2019-06-20T17:55:25.453Z,40.25
2019-06-20T17:57:57.477Z,40.76
2019-06-20T18:00:29.413Z,41.73
2019-06-20T18:03:01.451Z,42.15
2019-06-20T18:05:33.495Z,43.09
2019-06-20T18:08:14.520Z,43.09
2019-06-20T18:10:39.250Z,42.21
2019-06-20T18:13:11.352Z,43.33
2019-06-20T18:15:43.366Z,44.05
2019-06-20T18:18:15.459Z,43.14
2019-06-20T18:20:47.482Z,42.17
2019-06-20T18:23:19.619Z,42.45
2019-06-20T18:25:51.687Z,42.69
2019-06-20T18:28:23.685Z,42.48
2019-06-20T18:30:55.702Z,43.33
2019-06-20T18:33:27.757Z,44.00
2019-06-20T18:35:59.789Z,44.14
2019-06-20T18:38:31.839Z,44.46
2019-06-20T18:41:03.908Z,45.27
2019-06-20T18:43:35.914Z,45.53
2019-06-20T18:46:07.942Z,46.17
2019-06-20T18:48:40.008Z,46.31
2019-06-20T18:51:13.189Z,46.27
2019-06-20T18:53:45.356Z,46.42
2019-06-20T18:56:17.386Z,47.07
2019-06-20T18:58:49.521Z,47.08
2019-06-20T19:01:21.577Z,47.24
2019-06-20T19:03:53.619Z,47.95
2019-06-20T19:06:35.610Z,47.89
2019-06-20T19:08:59.455Z,48.17
2019-06-20T19:11:33.105Z,48.69
2019-06-20T19:14:05.217Z,48.45
2019-06-20T19:16:37.185Z,48.08
2019-06-20T19:19:09.178Z,47.95
2019-06-20T19:21:41.228Z,48.32
2019-06-20T19:24:14.440Z,48.41
2019-06-20T19:26:46.458Z,47.93
2019-06-20T19:29:18.556Z,47.88
2019-06-20T19:31:50.606Z,47.54
2019-06-20T19:34:22.650Z,48.10
2019-06-20T19:36:54.789Z,48.88
2019-06-20T19:39:26.797Z,49.15
2019-06-20T19:41:58.854Z,49.56
2019-06-20T19:44:31.014Z,50.12
2019-06-20T19:47:03.060Z,50.19
2019-06-20T19:49:35.082Z,50.01
2019-06-20T19:52:07.089Z,50.69
2019-06-20T19:54:39.102Z,50.41
2019-06-20T19:57:11.121Z,50.08
2019-06-20T19:59:46.039Z,50.17
2019-06-20T20:02:16.873Z,50.53
2019-06-20T20:04:48.838Z,50.47
2019-06-20T20:07:20.963Z,51.22
2019-06-20T20:09:52.995Z,50.45
2019-06-20T20:12:25.036Z,49.75
2019-06-20T20:14:57.056Z,50.53
2019-06-20T20:17:29.111Z,51.09
2019-06-20T20:20:07.653Z,51.50
2019-06-20T20:22:39.638Z,51.57
2019-06-20T20:25:11.785Z,51.58
2019-06-20T20:27:43.831Z,51.48
2019-06-20T20:30:15.837Z,52.19
2019-06-20T20:32:47.956Z,51.89
2019-06-20T20:35:34.511Z,52.07
2019-06-20T20:37:54.820Z,52.37
2019-06-20T20:40:27.853Z,53.18
2019-06-20T20:42:59.901Z,53.18
2019-06-20T20:45:31.940Z,52.97
2019-06-20T20:48:04.215Z,52.64
2019-06-20T20:50:36.180Z,52.75
2019-06-20T20:53:08.232Z,53.13
2019-06-20T20:55:40.280Z,52.87
2019-06-20T20:58:12.320Z,53.07
2019-06-20T21:00:51.825Z,53.19
2019-06-20T21:03:23.959Z,53.41
2019-06-20T21:05:57.052Z,53.43
2019-06-20T21:08:32.842Z,53.78
2019-06-20T21:11:03.819Z,53.74
2019-06-20T21:13:35.809Z,54.37
2019-06-20T21:16:07.831Z,54.01
2019-06-20T21:18:39.863Z,54.07
2019-06-20T21:21:11.977Z,54.00
2019-06-20T21:23:43.988Z,54.53
2019-06-20T21:26:16.056Z,54.04
2019-06-20T21:28:48.084Z,53.87
2019-06-20T21:31:20.127Z,53.63
2019-06-20T21:33:54.482Z,53.87
2019-06-20T21:36:25.976Z,53.77
2019-06-20T21:38:58.129Z,53.71
2019-06-20T21:41:30.155Z,53.94
2019-06-20T21:44:02.185Z,54.21
2019-06-20T21:46:34.240Z,54.82
2019-06-20T21:49:06.279Z,55.09
2019-06-20T21:51:38.315Z,54.76
2019-06-20T21:54:10.373Z,54.84
2019-06-20T21:56:42.401Z,55.09
2019-06-20T21:59:15.330Z,55.05
2019-06-20T22:01:48.529Z,55.37
2019-06-20T22:04:21.861Z,55.63
2019-06-20T22:06:53.909Z,55.89
2019-06-20T22:09:25.940Z,55.84
2019-06-20T22:11:57.958Z,56.03
2019-06-20T22:14:32.432Z,56.21
2019-06-20T22:17:03.683Z,56.35
2019-06-20T22:19:35.833Z,56.40
2019-06-20T22:22:07.891Z,56.32
2019-06-20T22:24:39.942Z,56.52
2019-06-20T22:27:11.970Z,56.78
2019-06-20T22:29:43.979Z,56.86
2019-06-20T22:32:16.013Z,56.55
2019-06-20T22:34:48.044Z,56.70
2019-06-20T22:37:20.177Z,57.06
2019-06-20T22:39:52.336Z,56.85
2019-06-20T22:42:24.373Z,56.83
2019-06-20T22:44:56.415Z,56.79
2019-06-20T22:47:28.578Z,56.97
2019-06-20T22:50:00.598Z,57.08
2019-06-20T22:52:32.629Z,57.23
2019-06-20T22:55:05.771Z,57.42
2019-06-20T22:57:37.828Z,57.66
2019-06-20T23:00:09.882Z,57.98
2019-06-20T23:02:41.920Z,58.06
2019-06-20T23:05:14.057Z,58.11
2019-06-20T23:07:46.191Z,57.93
2019-06-20T23:10:18.228Z,57.52
2019-06-20T23:12:50.263Z,57.49
2019-06-20T23:15:22.360Z,57.72
2019-06-20T23:17:54.410Z,57.73
2019-06-20T23:20:26.416Z,57.83
2019-06-20T23:22:58.445Z,57.84
2019-06-20T23:25:30.607Z,57.95
2019-06-20T23:28:02.559Z,58.32
2019-06-20T23:30:34.551Z,58.31
2019-06-20T23:33:06.597Z,58.19
2019-06-20T23:35:38.626Z,58.31
2019-06-20T23:38:10.663Z,58.67
2019-06-20T23:40:42.897Z,58.67
2019-06-20T23:43:14.930Z,58.90
2019-06-20T23:45:47.018Z,58.88
2019-06-20T23:48:19.066Z,58.92
2019-06-20T23:50:51.095Z,59.08
2019-06-20T23:53:27.871Z,59.09
2019-06-20T23:55:59.884Z,59.18
2019-06-20T23:58:31.927Z,59.24
